createdAt,value
2022-08-14T00:01:10.170Z,3.55
2022-08-14T00:03:38.375Z,3.92
2022-08-14T00:06:14.148Z,4.25
2022-08-14T00:08:54.826Z,4.13
2022-08-14T00:11:26.398Z,3.80
2022-08-14T00:13:55.899Z,3.55
2022-08-14T00:16:41.517Z,4.00
2022-08-14T00:19:18.460Z,3.22
2022-08-14T00:21:45.983Z,4.00
2022-08-14T00:24:14.194Z,3.40
2022-08-14T00:26:52.611Z,3.40
2022-08-14T00:29:21.754Z,3.58
2022-08-14T00:31:55.241Z,3.35
2022-08-14T00:34:36.507Z,3.53
2022-08-14T00:37:04.984Z,3.80
2022-08-14T00:39:32.112Z,3.63
2022-08-14T00:41:59.200Z,3.75
2022-08-14T00:44:32.289Z,3.92
2022-08-14T00:46:59.806Z,4.03
2022-08-14T00:49:27.925Z,4.50
2022-08-14T00:51:57.153Z,3.97
2022-08-14T00:54:25.148Z,4.85
2022-08-14T00:56:55.765Z,4.28
2022-08-14T00:59:23.064Z,4.55
2022-08-14T01:01:50.098Z,3.92
2022-08-14T01:04:51.511Z,4.88
2022-08-14T01:07:07.641Z,5.20
2022-08-14T01:09:36.010Z,4.63
2022-08-14T01:12:03.494Z,4.90
2022-08-14T01:14:30.757Z,5.07
2022-08-14T01:16:57.764Z,5.03
2022-08-14T01:19:24.791Z,5.25
2022-08-14T01:21:53.313Z,5.45
2022-08-14T01:24:28.949Z,5.50
2022-08-14T01:26:57.991Z,5.70
2022-08-14T01:29:43.162Z,6.00
2022-08-14T01:32:15.653Z,6.38
2022-08-14T01:35:18.976Z,6.70
2022-08-14T01:37:36.745Z,6.10
2022-08-14T01:40:11.299Z,7.40
2022-08-14T01:42:42.546Z,6.82
2022-08-14T01:45:11.611Z,7.97
2022-08-14T01:47:38.637Z,7.88
2022-08-14T01:50:05.646Z,7.93
2022-08-14T01:52:34.053Z,8.40
2022-08-14T01:55:01.833Z,9.82
2022-08-14T01:57:49.708Z,9.10
2022-08-14T02:00:16.864Z,9.75
2022-08-14T02:02:46.639Z,10.65
2022-08-14T02:05:13.778Z,11.07
2022-08-14T02:07:53.649Z,12.00
2022-08-14T02:10:26.273Z,13.52
2022-08-14T02:12:57.139Z,13.00
2022-08-14T02:15:24.590Z,13.38
2022-08-14T02:17:51.594Z,13.00
2022-08-14T02:20:19.983Z,13.38
2022-08-14T02:22:50.862Z,12.32
2022-08-14T02:25:20.640Z,11.55
2022-08-14T02:28:25.800Z,12.13
2022-08-14T02:30:38.226Z,11.30
2022-08-14T02:33:05.381Z,11.52
2022-08-14T02:35:32.831Z,11.02
2022-08-14T02:38:00.928Z,11.02
2022-08-14T02:40:32.293Z,9.45
2022-08-14T02:43:01.115Z,9.95
2022-08-14T02:45:33.179Z,9.60
2022-08-14T02:48:00.836Z,9.52
2022-08-14T02:50:28.857Z,9.20
2022-08-14T02:53:07.485Z,10.13
2022-08-14T02:55:35.830Z,8.60
2022-08-14T02:58:03.672Z,9.23
2022-08-14T03:00:33.005Z,9.18
2022-08-14T03:03:00.174Z,8.85
2022-08-14T03:05:27.265Z,10.02
2022-08-14T03:07:54.298Z,10.38
2022-08-14T03:10:26.538Z,9.32
2022-08-14T03:12:58.826Z,9.07
2022-08-14T03:15:25.836Z,9.52
2022-08-14T03:17:56.388Z,10.07
2022-08-14T03:20:24.989Z,9.85
2022-08-14T03:22:53.041Z,9.77
2022-08-14T03:25:20.041Z,9.25
2022-08-14T03:27:48.461Z,9.35
2022-08-14T03:30:39.936Z,10.38
2022-08-14T03:33:08.027Z,9.98
2022-08-14T03:35:39.690Z,9.65
2022-08-14T03:39:15.075Z,10.50
2022-08-14T03:40:54.556Z,9.82
2022-08-14T03:43:22.795Z,9.88
2022-08-14T03:45:49.800Z,10.63
2022-08-14T03:48:30.488Z,9.80
2022-08-14T03:50:58.914Z,10.05
2022-08-14T03:53:25.974Z,9.30
2022-08-14T03:55:53.003Z,10.05
2022-08-14T03:58:23.627Z,10.23
2022-08-14T04:01:02.271Z,10.63
2022-08-14T04:03:29.313Z,11.38
2022-08-14T04:05:56.753Z,10.57
2022-08-14T04:08:30.412Z,11.02
2022-08-14T04:10:58.656Z,10.77
2022-08-14T04:13:28.019Z,11.23
2022-08-14T04:16:01.861Z,10.95
2022-08-14T04:18:31.967Z,11.23
2022-08-14T04:21:00.807Z,11.48
2022-08-14T04:23:32.756Z,12.82
2022-08-14T04:26:00.526Z,11.63
2022-08-14T04:29:05.314Z,11.38
2022-08-14T04:31:15.440Z,12.02
2022-08-14T04:33:42.520Z,11.57
2022-08-14T04:36:16.029Z,11.48
2022-08-14T04:38:47.040Z,12.10
2022-08-14T04:41:14.228Z,11.40
2022-08-14T04:43:41.226Z,11.65
2022-08-14T04:46:08.249Z,11.48
2022-08-14T04:48:43.466Z,10.75
2022-08-14T04:51:10.927Z,10.82
2022-08-14T04:53:42.794Z,11.90
2022-08-14T04:56:10.681Z,11.13
2022-08-14T04:58:57.358Z,10.85
2022-08-14T05:01:24.443Z,11.02
2022-08-14T05:03:52.104Z,11.65
2022-08-14T05:06:38.016Z,11.27
2022-08-14T05:09:06.165Z,12.45
2022-08-14T05:11:33.175Z,11.57
2022-08-14T05:14:33.084Z,11.90
2022-08-14T05:16:50.653Z,11.45
2022-08-14T05:19:26.768Z,11.25
2022-08-14T05:22:00.952Z,11.98
2022-08-14T05:24:36.600Z,11.80
2022-08-14T05:27:04.440Z,11.20
2022-08-14T05:29:31.462Z,11.68
2022-08-14T05:31:59.541Z,11.07
2022-08-14T05:34:28.727Z,11.43
2022-08-14T05:37:02.406Z,10.68
2022-08-14T05:39:31.281Z,12.23
2022-08-14T05:41:58.541Z,10.80
2022-08-14T05:44:29.606Z,11.02
2022-08-14T05:46:57.123Z,12.07
2022-08-14T05:49:32.788Z,11.77
2022-08-14T05:52:01.928Z,11.60
2022-08-14T05:54:35.357Z,11.20
2022-08-14T05:57:02.927Z,12.03
2022-08-14T05:59:39.118Z,10.75
2022-08-14T06:02:06.498Z,11.77
2022-08-14T06:04:33.508Z,11.07
2022-08-14T06:07:00.523Z,10.50
2022-08-14T06:09:28.983Z,9.60
2022-08-14T06:12:02.609Z,11.00
2022-08-14T06:14:30.884Z,10.25
2022-08-14T06:16:57.911Z,10.00
2022-08-14T06:19:26.660Z,8.65
2022-08-14T06:21:58.485Z,8.75
2022-08-14T06:24:26.437Z,8.70
2022-08-14T06:26:56.893Z,9.35
2022-08-14T06:29:32.499Z,8.00
2022-08-14T06:32:38.332Z,7.75
2022-08-14T06:35:04.645Z,8.60
2022-08-14T06:37:34.592Z,8.15
2022-08-14T06:40:03.491Z,8.30
2022-08-14T06:42:42.597Z,7.18
2022-08-14T06:45:09.624Z,7.00
2022-08-14T06:47:36.643Z,7.28
2022-08-14T06:50:10.752Z,7.70
2022-08-14T06:52:38.662Z,7.40
2022-08-14T06:55:17.244Z,6.63
2022-08-14T06:57:44.257Z,6.70
2022-08-14T07:00:22.160Z,6.50
2022-08-14T07:02:53.826Z,6.15
2022-08-14T07:05:23.176Z,5.97
2022-08-14T07:07:50.452Z,6.20
2022-08-14T07:10:18.022Z,6.78
2022-08-14T07:12:56.474Z,5.97
2022-08-14T07:15:29.668Z,5.65
2022-08-14T07:17:59.647Z,5.20
2022-08-14T07:20:30.555Z,5.38
2022-08-14T07:23:01.470Z,4.90
2022-08-14T07:25:33.119Z,4.60
2022-08-14T07:28:00.213Z,4.90
2022-08-14T07:30:34.387Z,4.32
2022-08-14T07:33:02.214Z,4.30
2022-08-14T07:35:37.273Z,3.97
2022-08-14T07:38:10.240Z,3.88
2022-08-14T07:40:43.566Z,3.50
2022-08-14T07:43:14.450Z,3.72
2022-08-14T07:45:41.930Z,3.70
2022-08-14T07:48:09.291Z,4.05
2022-08-14T07:50:42.093Z,4.20
2022-08-14T07:53:12.530Z,3.60
2022-08-14T07:55:39.617Z,3.53
2022-08-14T07:58:30.260Z,2.90
2022-08-14T08:00:56.435Z,3.35
2022-08-14T08:03:23.723Z,3.30
2022-08-14T08:05:52.777Z,3.03
2022-08-14T08:08:27.168Z,3.00
2022-08-14T08:11:03.223Z,3.30
2022-08-14T08:13:30.694Z,3.30
2022-08-14T08:15:57.693Z,3.20
2022-08-14T08:18:27.451Z,2.85
2022-08-14T08:20:56.409Z,3.08
2022-08-14T08:23:28.295Z,3.83
2022-08-14T08:26:07.980Z,3.72
2022-08-14T08:28:35.349Z,3.15
2022-08-14T08:31:02.789Z,2.60
2022-08-14T08:33:32.372Z,3.17
2022-08-14T08:36:04.384Z,3.20
2022-08-14T08:39:14.464Z,2.70
2022-08-14T08:41:18.614Z,2.67
2022-08-14T08:43:47.053Z,2.58
2022-08-14T08:46:21.058Z,2.90
2022-08-14T08:48:54.208Z,3.05
2022-08-14T08:51:20.368Z,2.40
2022-08-14T08:53:47.366Z,2.83
2022-08-14T08:56:30.069Z,2.85
2022-08-14T08:58:57.827Z,3.23
2022-08-14T09:01:24.930Z,2.45
2022-08-14T09:03:52.005Z,2.55
2022-08-14T09:06:53.843Z,2.72
2022-08-14T09:09:07.053Z,2.63
2022-08-14T09:11:35.176Z,2.72
2022-08-14T09:14:03.212Z,2.50
2022-08-14T09:16:32.622Z,2.70
2022-08-14T09:18:59.668Z,2.40
2022-08-14T09:21:31.240Z,2.22
2022-08-14T09:24:28.504Z,2.63
2022-08-14T09:26:49.500Z,2.45
2022-08-14T09:29:17.093Z,2.45
2022-08-14T09:31:52.992Z,2.15
2022-08-14T09:34:28.211Z,1.98
2022-08-14T09:36:55.510Z,2.10
2022-08-14T09:39:23.586Z,2.20
2022-08-14T09:42:20.508Z,2.85
2022-08-14T09:44:38.225Z,2.15
2022-08-14T09:47:05.313Z,2.50
2022-08-14T09:49:34.044Z,2.00
2022-08-14T09:54:54.813Z,2.10
2022-08-14T09:57:21.863Z,1.98
2022-08-14T09:59:54.509Z,1.93
2022-08-14T10:02:21.585Z,1.50
2022-08-14T10:04:50.044Z,1.92
2022-08-14T10:07:17.191Z,2.00
2022-08-14T10:09:44.205Z,2.45
2022-08-14T10:12:28.637Z,1.80
2022-08-14T10:14:56.369Z,2.00
2022-08-14T10:17:23.367Z,1.60
2022-08-14T10:19:50.785Z,2.15
2022-08-14T10:23:12.296Z,1.90
2022-08-14T10:25:04.795Z,1.58
2022-08-14T10:27:34.540Z,1.63
2022-08-14T10:30:02.661Z,2.10
2022-08-14T10:32:39.996Z,1.75
2022-08-14T10:35:13.507Z,1.80
2022-08-14T10:37:41.252Z,2.08
2022-08-14T10:40:38.137Z,1.75
2022-08-14T10:42:58.356Z,1.70
2022-08-14T10:45:27.797Z,1.80
2022-08-14T10:48:09.275Z,1.88
2022-08-14T10:50:42.536Z,1.42
2022-08-14T10:53:09.655Z,1.90
2022-08-14T10:55:38.480Z,1.60
2022-08-14T10:58:05.566Z,1.40
2022-08-14T11:00:35.674Z,1.50
2022-08-14T11:03:03.022Z,1.90
2022-08-14T11:05:30.040Z,1.73
2022-08-14T11:07:57.234Z,1.58
2022-08-14T11:10:28.022Z,1.33
2022-08-14T11:12:55.108Z,1.40
2022-08-14T11:15:22.145Z,1.60
2022-08-14T11:17:50.236Z,1.40
2022-08-14T11:20:18.782Z,1.33
2022-08-14T11:22:56.604Z,1.25
2022-08-14T11:25:25.748Z,1.30
2022-08-14T11:28:11.221Z,1.48
2022-08-14T11:30:49.832Z,1.80
2022-08-14T11:33:18.902Z,1.50
2022-08-14T11:35:48.163Z,1.50
2022-08-14T11:38:17.160Z,1.40
2022-08-14T11:40:46.817Z,1.30
2022-08-14T11:43:14.773Z,1.30
2022-08-14T11:45:41.956Z,1.40
2022-08-14T11:48:13.215Z,1.60
2022-08-14T11:50:56.052Z,1.38
2022-08-14T11:53:23.071Z,1.20
2022-08-14T11:55:50.612Z,1.52
2022-08-14T11:58:24.162Z,1.52
2022-08-14T12:00:52.635Z,1.20
2022-08-14T12:03:27.204Z,1.20
2022-08-14T12:06:06.871Z,1.58
2022-08-14T12:08:53.854Z,1.70
2022-08-14T12:11:23.054Z,1.65
2022-08-14T12:13:55.795Z,1.27
2022-08-14T12:16:23.327Z,1.40
2022-08-14T12:18:50.341Z,1.40
2022-08-14T12:21:19.218Z,1.20
2022-08-14T12:23:46.657Z,1.33
2022-08-14T12:26:39.333Z,1.27
2022-08-14T12:29:04.710Z,1.35
2022-08-14T12:31:36.424Z,1.20
2022-08-14T12:34:11.440Z,1.20
2022-08-14T12:36:38.454Z,1.08
2022-08-14T12:39:06.195Z,1.27
2022-08-14T12:41:34.391Z,1.23
2022-08-14T12:44:04.308Z,1.20
2022-08-14T12:46:32.785Z,1.20
2022-08-14T12:48:59.797Z,1.50
2022-08-14T12:51:27.265Z,1.30
2022-08-14T12:53:54.553Z,1.35
2022-08-14T12:56:32.965Z,1.42
2022-08-14T12:59:01.229Z,1.90
2022-08-14T13:01:28.271Z,2.47
2022-08-14T13:03:55.312Z,2.78
2022-08-14T13:06:23.053Z,2.20
2022-08-14T13:08:52.995Z,2.88
2022-08-14T13:11:20.563Z,2.70
2022-08-14T13:13:51.168Z,2.70
2022-08-14T13:16:20.097Z,5.18
2022-08-14T13:18:48.083Z,7.38
2022-08-14T13:21:25.363Z,6.05
2022-08-14T13:23:52.384Z,4.90
2022-08-14T13:26:19.810Z,5.07
2022-08-14T13:29:02.806Z,4.70
2022-08-14T13:31:30.816Z,4.45
2022-08-14T13:34:01.303Z,3.28
2022-08-14T13:36:54.694Z,3.63
2022-08-14T13:39:15.317Z,3.03
2022-08-14T13:41:42.338Z,3.55
2022-08-14T13:44:13.816Z,3.97
2022-08-14T13:46:41.225Z,3.30
2022-08-14T13:49:10.808Z,5.45
2022-08-14T13:51:37.810Z,5.40
2022-08-14T13:54:10.858Z,5.72
2022-08-14T13:59:05.724Z,6.40
2022-08-14T14:01:37.671Z,6.65
2022-08-14T14:04:11.357Z,5.60
2022-08-14T14:06:46.703Z,4.15
2022-08-14T14:09:13.868Z,4.40
2022-08-14T14:11:40.873Z,4.13
2022-08-14T14:14:08.090Z,3.30
2022-08-14T14:16:55.102Z,2.60
2022-08-14T14:19:23.456Z,1.98
2022-08-14T14:21:50.611Z,1.52
2022-08-14T14:24:17.629Z,2.13
2022-08-14T14:26:44.656Z,1.52
2022-08-14T14:29:13.062Z,1.70
2022-08-14T14:31:40.722Z,1.80
2022-08-14T14:34:19.982Z,2.20
2022-08-14T14:36:55.585Z,1.58
2022-08-14T14:39:23.210Z,1.30
2022-08-14T14:41:50.420Z,1.58
2022-08-14T14:44:23.369Z,1.47
2022-08-14T14:46:50.682Z,1.40
2022-08-14T14:49:18.094Z,1.10
2022-08-14T14:51:51.568Z,1.42
2022-08-14T14:54:19.471Z,1.40
2022-08-14T14:56:58.308Z,1.23
2022-08-14T14:59:25.320Z,1.42
2022-08-14T15:01:52.423Z,1.40
2022-08-14T15:04:20.006Z,1.40
2022-08-14T15:06:48.329Z,1.60
2022-08-14T15:09:17.843Z,1.70
2022-08-14T15:11:45.611Z,2.00
2022-08-14T15:14:55.895Z,1.70
2022-08-14T15:17:00.423Z,1.48
2022-08-14T15:19:27.996Z,1.42
2022-08-14T15:21:55.782Z,1.55
2022-08-14T15:24:26.538Z,1.58
2022-08-14T15:26:54.150Z,1.55
2022-08-14T15:29:21.187Z,1.67
2022-08-14T15:31:48.187Z,1.63
2022-08-14T15:34:43.300Z,1.67
2022-08-14T15:37:12.610Z,1.80
2022-08-14T15:39:41.426Z,1.88
2022-08-14T15:42:14.314Z,1.58
2022-08-14T15:44:56.632Z,1.40
2022-08-14T15:47:28.188Z,1.60
2022-08-14T15:49:58.379Z,1.55
2022-08-14T15:52:33.188Z,1.60
2022-08-14T15:55:13.019Z,1.80
2022-08-14T15:58:01.856Z,1.80
2022-08-14T16:00:43.561Z,1.70
2022-08-14T16:03:11.519Z,1.90
2022-08-14T16:05:38.949Z,1.70
2022-08-14T16:08:27.365Z,1.92
2022-08-14T16:10:55.110Z,1.80
2022-08-14T16:13:39.540Z,2.33
2022-08-14T16:16:47.076Z,2.10
2022-08-14T16:18:56.128Z,2.20
2022-08-14T16:21:23.712Z,2.10
2022-08-14T16:23:53.672Z,2.20
2022-08-14T16:26:20.818Z,2.20
2022-08-14T16:28:56.327Z,2.00
2022-08-14T16:31:25.275Z,2.20
2022-08-14T16:34:44.189Z,2.30
2022-08-14T16:36:51.002Z,2.10
2022-08-14T16:39:18.244Z,2.15
2022-08-14T16:41:45.627Z,2.20
2022-08-14T16:44:21.824Z,2.33
2022-08-14T16:46:59.162Z,2.20
2022-08-14T16:50:03.419Z,2.42
2022-08-14T16:52:43.658Z,1.88
2022-08-14T16:55:00.355Z,2.28
2022-08-14T16:57:27.377Z,2.15
2022-08-14T16:59:59.069Z,2.28
2022-08-14T17:02:26.188Z,2.55
2022-08-14T17:04:53.868Z,2.03
2022-08-14T17:07:22.599Z,2.50
2022-08-14T17:09:50.119Z,2.40
2022-08-14T17:12:34.029Z,2.45
2022-08-14T17:15:02.421Z,2.72
2022-08-14T17:17:29.447Z,2.70
2022-08-14T17:19:59.253Z,2.20
2022-08-14T17:22:26.924Z,2.30
2022-08-14T17:25:03.340Z,2.17
2022-08-14T17:27:30.962Z,2.55
2022-08-14T17:29:58.908Z,2.40
2022-08-14T17:32:28.465Z,3.00
2022-08-14T17:35:10.960Z,2.85
2022-08-14T17:37:37.988Z,2.78
2022-08-14T17:40:15.255Z,2.65
2022-08-14T17:42:43.175Z,2.50
2022-08-14T17:45:10.182Z,2.50
2022-08-14T17:47:37.524Z,2.92
2022-08-14T17:50:59.989Z,2.53
2022-08-14T17:52:51.580Z,2.83
2022-08-14T17:56:01.110Z,2.20
2022-08-14T17:58:20.421Z,2.60
2022-08-14T18:00:48.611Z,2.70
2022-08-14T18:03:44.647Z,2.65
2022-08-14T18:06:09.467Z,2.53
2022-08-14T18:08:55.358Z,2.50
2022-08-14T18:11:23.882Z,2.70
2022-08-14T18:13:52.685Z,2.97
2022-08-14T18:16:22.467Z,2.83
2022-08-14T18:18:49.816Z,2.50
2022-08-14T18:21:43.049Z,3.03
2022-08-14T18:24:28.103Z,3.25
2022-08-14T18:26:52.295Z,3.92
2022-08-14T18:29:31.760Z,2.88
2022-08-14T18:31:58.942Z,3.25
2022-08-14T18:34:32.051Z,2.97
2022-08-14T18:37:09.626Z,2.50
2022-08-14T18:40:02.791Z,2.92
2022-08-14T18:42:31.102Z,3.10
2022-08-14T18:44:58.114Z,3.25
2022-08-14T18:47:25.536Z,3.78
2022-08-14T18:49:52.731Z,3.20
2022-08-14T18:52:21.375Z,3.40
2022-08-14T18:54:59.029Z,3.72
2022-08-14T18:57:27.079Z,3.78
2022-08-14T19:00:07.417Z,3.25
2022-08-14T19:02:42.373Z,3.80
2022-08-14T19:05:09.912Z,3.78
2022-08-14T19:07:37.004Z,4.40
2022-08-14T19:10:04.038Z,4.55
2022-08-14T19:12:37.157Z,4.80
2022-08-14T19:15:11.483Z,4.75
2022-08-14T19:17:41.792Z,4.60
2022-08-14T19:20:08.922Z,4.75
2022-08-14T19:22:35.942Z,4.50
2022-08-14T19:25:05.683Z,4.38
2022-08-14T19:27:37.574Z,4.82
2022-08-14T19:30:04.978Z,4.63
2022-08-14T19:32:36.529Z,5.05
2022-08-14T19:35:17.315Z,4.68
2022-08-14T19:37:45.175Z,4.60
2022-08-14T19:40:15.496Z,5.57
2022-08-14T19:42:47.316Z,5.00
2022-08-14T19:45:15.963Z,5.60
2022-08-14T19:47:43.007Z,5.28
2022-08-14T19:50:38.034Z,6.30
2022-08-14T19:52:57.075Z,6.07
2022-08-14T19:55:34.717Z,5.75
2022-08-14T19:58:01.927Z,5.57
2022-08-14T20:00:30.670Z,5.50
2022-08-14T20:02:58.761Z,5.45
2022-08-14T20:05:29.027Z,9.02
2022-08-14T20:11:00.943Z,13.13
2022-08-14T20:11:07.094Z,13.63
2022-08-14T20:13:42.921Z,7.18
2022-08-14T20:16:12.597Z,10.52
2022-08-14T20:18:50.044Z,11.07
2022-08-14T20:21:17.589Z,8.15
2022-08-14T20:23:47.827Z,8.55
2022-08-14T20:26:15.415Z,7.97
2022-08-14T20:28:59.121Z,6.70
2022-08-14T20:31:36.684Z,7.30
2022-08-14T20:34:06.260Z,6.75
2022-08-14T20:36:33.363Z,7.13
2022-08-14T20:39:00.384Z,6.78
2022-08-14T20:41:27.472Z,6.25
2022-08-14T20:43:54.514Z,6.50
2022-08-14T20:46:22.036Z,5.57
2022-08-14T20:48:53.254Z,4.93
2022-08-14T20:51:20.677Z,4.97
2022-08-14T20:53:51.029Z,4.40
2022-08-14T20:56:28.520Z,4.55
2022-08-14T20:58:56.972Z,4.90
2022-08-14T21:01:24.081Z,6.00
2022-08-14T21:03:59.928Z,6.05
2022-08-14T21:06:26.956Z,5.65
2022-08-14T21:08:53.970Z,4.82
2022-08-14T21:11:21.980Z,4.97
2022-08-14T21:14:20.585Z,5.00
2022-08-14T21:16:40.982Z,4.82
2022-08-14T21:19:22.969Z,4.68
2022-08-14T21:21:55.409Z,4.90
2022-08-14T21:24:40.204Z,3.85
2022-08-14T21:27:19.650Z,3.50
2022-08-14T21:29:55.625Z,4.05
2022-08-14T21:32:23.373Z,3.97
2022-08-14T21:34:55.003Z,4.00
2022-08-14T21:37:22.511Z,3.58
2022-08-14T21:39:57.196Z,3.97
2022-08-14T21:42:27.945Z,4.00
2022-08-14T21:44:55.150Z,3.55
2022-08-14T21:47:23.788Z,3.67
2022-08-14T21:49:50.990Z,3.38
2022-08-14T21:52:51.079Z,3.42
2022-08-14T21:55:09.301Z,3.17
2022-08-14T21:58:03.950Z,3.05
2022-08-14T22:00:35.278Z,2.90
2022-08-14T22:03:04.439Z,2.63
2022-08-14T22:05:31.611Z,2.72
2022-08-14T22:07:58.645Z,3.50
2022-08-14T22:10:25.645Z,3.13
2022-08-14T22:13:00.961Z,3.28
2022-08-14T22:15:28.542Z,3.10
2022-08-14T22:17:55.655Z,3.20
2022-08-14T22:20:22.832Z,3.25
2022-08-14T22:22:56.167Z,3.05
2022-08-14T22:25:31.945Z,2.95
2022-08-14T22:28:01.296Z,2.75
2022-08-14T22:30:28.327Z,2.65
2022-08-14T22:32:57.414Z,2.80
2022-08-14T22:35:25.358Z,2.50
2022-08-14T22:38:36.125Z,2.80
2022-08-14T22:41:02.547Z,2.63
2022-08-14T22:43:26.941Z,2.65
2022-08-14T22:45:55.720Z,2.67
2022-08-14T22:48:23.469Z,3.25
2022-08-14T22:50:53.581Z,2.50
2022-08-14T22:53:20.922Z,2.80
2022-08-14T22:55:48.771Z,3.00
2022-08-14T22:58:19.415Z,3.00
2022-08-14T23:00:57.787Z,3.20
2022-08-14T23:03:24.943Z,3.53
2022-08-14T23:05:54.580Z,3.47
2022-08-14T23:08:59.171Z,2.75
2022-08-14T23:11:08.778Z,3.40
2022-08-14T23:13:35.787Z,2.90
2022-08-14T23:16:05.978Z,2.80
2022-08-14T23:18:33.346Z,3.28
2022-08-14T23:21:00.358Z,2.75
2022-08-14T23:23:27.994Z,2.95
2022-08-14T23:26:00.109Z,3.00
2022-08-14T23:28:56.568Z,3.28
2022-08-14T23:31:34.195Z,3.28
2022-08-14T23:34:02.170Z,4.15
2022-08-14T23:36:38.094Z,4.10
2022-08-14T23:39:20.868Z,2.80
2022-08-14T23:41:52.596Z,3.03
2022-08-14T23:44:19.900Z,2.88
2022-08-14T23:46:48.556Z,2.90
2022-08-14T23:49:15.799Z,2.95
2022-08-14T23:51:42.801Z,2.75
2022-08-14T23:54:48.208Z,2.78
2022-08-14T23:57:02.596Z,2.80
2022-08-14T23:59:30.790Z,2.90
